sensor_id;sensor_type;location;lat;lon;timestamp;P1;durP1;ratioP1;P2;durP2;ratioP2
67546;SDS011;54381;53.516;49.424;2022-08-21T00:01:12;25.20;;;8.40;;
67546;SDS011;54381;53.516;49.424;2022-08-21T00:03:41;18.02;;;8.05;;
67546;SDS011;54381;53.516;49.424;2022-08-21T00:06:07;24.00;;;7.78;;
67546;SDS011;54381;53.516;49.424;2022-08-21T00:08:34;24.33;;;7.78;;
67546;SDS011;54381;53.516;49.424;2022-08-21T00:11:00;17.33;;;7.15;;
67546;SDS011;54381;53.516;49.424;2022-08-21T00:13:27;17.85;;;6.65;;
67546;SDS011;54381;53.516;49.424;2022-08-21T00:15:53;15.82;;;6.75;;
67546;SDS011;54381;53.516;49.424;2022-08-21T00:18:20;27.10;;;7.85;;
67546;SDS011;54381;53.516;49.424;2022-08-21T00:20:47;16.38;;;7.03;;
67546;SDS011;54381;53.516;49.424;2022-08-21T00:23:13;19.27;;;6.93;;
67546;SDS011;54381;53.516;49.424;2022-08-21T00:25:40;16.27;;;6.53;;
67546;SDS011;54381;53.516;49.424;2022-08-21T00:28:07;22.02;;;6.88;;
67546;SDS011;54381;53.516;49.424;2022-08-21T00:30:34;16.42;;;6.93;;
67546;SDS011;54381;53.516;49.424;2022-08-21T00:33:01;17.50;;;6.40;;
67546;SDS011;54381;53.516;49.424;2022-08-21T00:35:29;16.38;;;6.28;;
67546;SDS011;54381;53.516;49.424;2022-08-21T00:37:57;14.98;;;6.28;;
67546;SDS011;54381;53.516;49.424;2022-08-21T00:40:26;13.63;;;7.15;;
67546;SDS011;54381;53.516;49.424;2022-08-21T00:42:57;19.20;;;6.68;;
67546;SDS011;54381;53.516;49.424;2022-08-21T00:45:24;22.75;;;6.43;;
67546;SDS011;54381;53.516;49.424;2022-08-21T00:47:53;20.73;;;7.10;;
67546;SDS011;54381;53.516;49.424;2022-08-21T00:50:20;17.02;;;6.50;;
67546;SDS011;54381;53.516;49.424;2022-08-21T00:52:48;21.70;;;6.82;;
67546;SDS011;54381;53.516;49.424;2022-08-21T00:55:16;31.27;;;7.05;;
67546;SDS011;54381;53.516;49.424;2022-08-21T00:57:45;24.77;;;7.18;;
67546;SDS011;54381;53.516;49.424;2022-08-21T01:00:17;19.90;;;6.32;;
67546;SDS011;54381;53.516;49.424;2022-08-21T01:02:46;14.77;;;6.20;;
67546;SDS011;54381;53.516;49.424;2022-08-21T01:05:13;14.75;;;6.15;;
67546;SDS011;54381;53.516;49.424;2022-08-21T01:07:40;13.60;;;6.10;;
67546;SDS011;54381;53.516;49.424;2022-08-21T01:10:07;17.48;;;6.15;;
67546;SDS011;54381;53.516;49.424;2022-08-21T01:12:34;17.20;;;6.85;;
67546;SDS011;54381;53.516;49.424;2022-08-21T01:15:02;17.52;;;6.60;;
67546;SDS011;54381;53.516;49.424;2022-08-21T01:17:30;11.40;;;6.10;;
67546;SDS011;54381;53.516;49.424;2022-08-21T01:19:57;13.70;;;6.47;;
67546;SDS011;54381;53.516;49.424;2022-08-21T01:22:24;15.35;;;6.90;;
67546;SDS011;54381;53.516;49.424;2022-08-21T01:24:51;17.13;;;6.90;;
67546;SDS011;54381;53.516;49.424;2022-08-21T01:27:18;18.98;;;6.90;;
67546;SDS011;54381;53.516;49.424;2022-08-21T01:30:30;15.40;;;7.13;;
67546;SDS011;54381;53.516;49.424;2022-08-21T01:32:37;17.83;;;6.93;;
67546;SDS011;54381;53.516;49.424;2022-08-21T01:35:04;22.20;;;7.30;;
67546;SDS011;54381;53.516;49.424;2022-08-21T01:37:31;17.65;;;6.90;;
67546;SDS011;54381;53.516;49.424;2022-08-21T01:39:58;22.08;;;7.78;;
67546;SDS011;54381;53.516;49.424;2022-08-21T01:42:24;18.63;;;7.40;;
67546;SDS011;54381;53.516;49.424;2022-08-21T01:44:50;18.77;;;7.60;;
67546;SDS011;54381;53.516;49.424;2022-08-21T01:47:16;20.98;;;7.90;;
67546;SDS011;54381;53.516;49.424;2022-08-21T01:49:43;14.18;;;8.15;;
67546;SDS011;54381;53.516;49.424;2022-08-21T01:52:10;18.60;;;8.30;;
67546;SDS011;54381;53.516;49.424;2022-08-21T01:54:39;18.58;;;8.05;;
67546;SDS011;54381;53.516;49.424;2022-08-21T01:57:07;24.77;;;8.43;;
67546;SDS011;54381;53.516;49.424;2022-08-21T01:59:33;22.40;;;7.65;;
67546;SDS011;54381;53.516;49.424;2022-08-21T02:02:00;21.13;;;7.82;;
67546;SDS011;54381;53.516;49.424;2022-08-21T02:04:27;21.52;;;8.70;;
67546;SDS011;54381;53.516;49.424;2022-08-21T02:06:53;21.05;;;7.70;;
67546;SDS011;54381;53.516;49.424;2022-08-21T02:09:19;16.88;;;7.93;;
67546;SDS011;54381;53.516;49.424;2022-08-21T02:11:47;26.88;;;7.80;;
67546;SDS011;54381;53.516;49.424;2022-08-21T02:14:13;15.23;;;7.75;;
67546;SDS011;54381;53.516;49.424;2022-08-21T02:16:41;19.60;;;7.40;;
67546;SDS011;54381;53.516;49.424;2022-08-21T02:19:10;20.52;;;7.60;;
67546;SDS011;54381;53.516;49.424;2022-08-21T02:21:37;17.98;;;6.93;;
67546;SDS011;54381;53.516;49.424;2022-08-21T02:24:04;19.75;;;7.40;;
67546;SDS011;54381;53.516;49.424;2022-08-21T02:26:31;28.73;;;7.80;;
67546;SDS011;54381;53.516;49.424;2022-08-21T02:29:04;26.15;;;8.05;;
67546;SDS011;54381;53.516;49.424;2022-08-21T02:31:30;25.70;;;8.57;;
67546;SDS011;54381;53.516;49.424;2022-08-21T02:33:57;26.48;;;8.77;;
67546;SDS011;54381;53.516;49.424;2022-08-21T02:36:23;31.48;;;8.60;;
67546;SDS011;54381;53.516;49.424;2022-08-21T02:38:49;21.48;;;8.25;;
67546;SDS011;54381;53.516;49.424;2022-08-21T02:41:16;26.15;;;7.82;;
67546;SDS011;54381;53.516;49.424;2022-08-21T02:43:44;40.97;;;8.80;;
67546;SDS011;54381;53.516;49.424;2022-08-21T02:46:11;49.40;;;8.75;;
67546;SDS011;54381;53.516;49.424;2022-08-21T02:48:39;37.00;;;8.30;;
67546;SDS011;54381;53.516;49.424;2022-08-21T02:51:10;24.77;;;8.55;;
67546;SDS011;54381;53.516;49.424;2022-08-21T02:53:38;23.17;;;7.82;;
67546;SDS011;54381;53.516;49.424;2022-08-21T02:56:07;42.22;;;8.35;;
67546;SDS011;54381;53.516;49.424;2022-08-21T02:58:36;26.75;;;10.13;;
67546;SDS011;54381;53.516;49.424;2022-08-21T03:01:09;16.42;;;6.22;;
67546;SDS011;54381;53.516;49.424;2022-08-21T03:03:39;23.15;;;6.88;;
67546;SDS011;54381;53.516;49.424;2022-08-21T03:06:07;18.98;;;6.32;;
67546;SDS011;54381;53.516;49.424;2022-08-21T03:08:35;27.23;;;5.93;;
67546;SDS011;54381;53.516;49.424;2022-08-21T03:11:03;16.02;;;6.07;;
67546;SDS011;54381;53.516;49.424;2022-08-21T03:13:29;19.52;;;6.05;;
67546;SDS011;54381;53.516;49.424;2022-08-21T03:15:57;20.67;;;6.20;;
67546;SDS011;54381;53.516;49.424;2022-08-21T03:18:24;14.07;;;5.95;;
67546;SDS011;54381;53.516;49.424;2022-08-21T03:20:50;17.38;;;6.18;;
67546;SDS011;54381;53.516;49.424;2022-08-21T03:23:17;14.18;;;5.75;;
67546;SDS011;54381;53.516;49.424;2022-08-21T03:25:44;13.23;;;5.45;;
67546;SDS011;54381;53.516;49.424;2022-08-21T03:28:12;18.33;;;5.68;;
67546;SDS011;54381;53.516;49.424;2022-08-21T03:30:41;16.95;;;6.22;;
67546;SDS011;54381;53.516;49.424;2022-08-21T03:33:09;14.80;;;6.25;;
67546;SDS011;54381;53.516;49.424;2022-08-21T03:35:35;18.30;;;6.18;;
67546;SDS011;54381;53.516;49.424;2022-08-21T03:38:01;17.17;;;7.35;;
67546;SDS011;54381;53.516;49.424;2022-08-21T03:40:28;21.95;;;8.93;;
67546;SDS011;54381;53.516;49.424;2022-08-21T03:42:54;15.45;;;7.43;;
67546;SDS011;54381;53.516;49.424;2022-08-21T03:45:20;20.60;;;6.97;;
67546;SDS011;54381;53.516;49.424;2022-08-21T03:47:51;32.75;;;8.05;;
67546;SDS011;54381;53.516;49.424;2022-08-21T03:52:48;13.20;;;7.32;;
67546;SDS011;54381;53.516;49.424;2022-08-21T03:55:14;13.27;;;6.85;;
67546;SDS011;54381;53.516;49.424;2022-08-21T03:57:40;21.70;;;8.02;;
67546;SDS011;54381;53.516;49.424;2022-08-21T04:00:07;25.55;;;7.85;;
67546;SDS011;54381;53.516;49.424;2022-08-21T04:02:37;17.27;;;7.15;;
67546;SDS011;54381;53.516;49.424;2022-08-21T04:05:04;22.67;;;6.88;;
67546;SDS011;54381;53.516;49.424;2022-08-21T04:07:31;17.20;;;8.30;;
67546;SDS011;54381;53.516;49.424;2022-08-21T04:09:58;17.55;;;7.78;;
67546;SDS011;54381;53.516;49.424;2022-08-21T04:12:24;22.52;;;9.05;;
67546;SDS011;54381;53.516;49.424;2022-08-21T04:14:50;28.73;;;9.93;;
67546;SDS011;54381;53.516;49.424;2022-08-21T04:17:19;23.25;;;12.10;;
67546;SDS011;54381;53.516;49.424;2022-08-21T04:19:45;25.23;;;11.98;;
67546;SDS011;54381;53.516;49.424;2022-08-21T04:22:12;21.25;;;12.13;;
67546;SDS011;54381;53.516;49.424;2022-08-21T04:24:38;24.35;;;13.43;;
67546;SDS011;54381;53.516;49.424;2022-08-21T04:27:04;27.00;;;11.55;;
67546;SDS011;54381;53.516;49.424;2022-08-21T04:29:30;19.25;;;11.70;;
67546;SDS011;54381;53.516;49.424;2022-08-21T04:31:56;30.35;;;12.45;;
67546;SDS011;54381;53.516;49.424;2022-08-21T04:34:22;26.77;;;10.90;;
67546;SDS011;54381;53.516;49.424;2022-08-21T04:36:48;21.58;;;9.95;;
67546;SDS011;54381;53.516;49.424;2022-08-21T04:39:15;16.48;;;9.25;;
67546;SDS011;54381;53.516;49.424;2022-08-21T04:41:41;18.48;;;9.35;;
67546;SDS011;54381;53.516;49.424;2022-08-21T04:44:07;14.18;;;8.30;;
67546;SDS011;54381;53.516;49.424;2022-08-21T04:46:34;13.93;;;9.07;;
67546;SDS011;54381;53.516;49.424;2022-08-21T04:49:00;21.70;;;8.82;;
67546;SDS011;54381;53.516;49.424;2022-08-21T04:51:32;28.30;;;9.10;;
67546;SDS011;54381;53.516;49.424;2022-08-21T04:54:02;18.38;;;8.98;;
67546;SDS011;54381;53.516;49.424;2022-08-21T04:56:39;20.58;;;9.23;;
67546;SDS011;54381;53.516;49.424;2022-08-21T04:59:22;16.60;;;9.43;;
67546;SDS011;54381;53.516;49.424;2022-08-21T05:01:52;23.13;;;9.55;;
67546;SDS011;54381;53.516;49.424;2022-08-21T05:04:23;20.30;;;8.95;;
67546;SDS011;54381;53.516;49.424;2022-08-21T05:06:52;23.85;;;9.10;;
67546;SDS011;54381;53.516;49.424;2022-08-21T05:09:20;15.48;;;8.25;;
67546;SDS011;54381;53.516;49.424;2022-08-21T05:11:49;16.75;;;7.40;;
67546;SDS011;54381;53.516;49.424;2022-08-21T05:14:17;16.63;;;7.93;;
67546;SDS011;54381;53.516;49.424;2022-08-21T05:16:43;24.58;;;7.43;;
67546;SDS011;54381;53.516;49.424;2022-08-21T05:19:09;18.00;;;7.43;;
67546;SDS011;54381;53.516;49.424;2022-08-21T05:21:37;18.23;;;7.43;;
67546;SDS011;54381;53.516;49.424;2022-08-21T05:24:08;15.98;;;7.97;;
67546;SDS011;54381;53.516;49.424;2022-08-21T05:26:34;17.48;;;8.52;;
67546;SDS011;54381;53.516;49.424;2022-08-21T05:29:02;21.08;;;7.53;;
67546;SDS011;54381;53.516;49.424;2022-08-21T05:31:29;12.73;;;7.40;;
67546;SDS011;54381;53.516;49.424;2022-08-21T05:33:55;61.33;;;8.82;;
67546;SDS011;54381;53.516;49.424;2022-08-21T05:36:22;19.58;;;7.47;;
67546;SDS011;54381;53.516;49.424;2022-08-21T05:38:49;15.57;;;6.82;;
67546;SDS011;54381;53.516;49.424;2022-08-21T05:41:15;14.63;;;8.02;;
67546;SDS011;54381;53.516;49.424;2022-08-21T05:43:42;18.38;;;6.95;;
67546;SDS011;54381;53.516;49.424;2022-08-21T05:46:08;14.48;;;6.35;;
67546;SDS011;54381;53.516;49.424;2022-08-21T05:48:34;13.15;;;8.07;;
67546;SDS011;54381;53.516;49.424;2022-08-21T05:51:08;14.80;;;7.28;;
67546;SDS011;54381;53.516;49.424;2022-08-21T05:53:36;17.15;;;7.55;;
67546;SDS011;54381;53.516;49.424;2022-08-21T05:56:03;11.93;;;7.20;;
67546;SDS011;54381;53.516;49.424;2022-08-21T05:58:31;18.27;;;6.47;;
67546;SDS011;54381;53.516;49.424;2022-08-21T06:00:58;16.83;;;7.10;;
67546;SDS011;54381;53.516;49.424;2022-08-21T06:03:26;12.57;;;5.32;;
67546;SDS011;54381;53.516;49.424;2022-08-21T06:05:54;13.43;;;4.93;;
67546;SDS011;54381;53.516;49.424;2022-08-21T06:08:21;8.40;;;4.22;;
67546;SDS011;54381;53.516;49.424;2022-08-21T06:10:48;8.05;;;4.22;;
67546;SDS011;54381;53.516;49.424;2022-08-21T06:13:16;12.50;;;4.57;;
67546;SDS011;54381;53.516;49.424;2022-08-21T06:15:43;17.38;;;5.15;;
67546;SDS011;54381;53.516;49.424;2022-08-21T06:18:10;13.45;;;4.95;;
67546;SDS011;54381;53.516;49.424;2022-08-21T06:20:37;15.10;;;4.75;;
67546;SDS011;54381;53.516;49.424;2022-08-21T06:23:04;12.20;;;4.82;;
67546;SDS011;54381;53.516;49.424;2022-08-21T06:25:30;11.85;;;4.55;;
67546;SDS011;54381;53.516;49.424;2022-08-21T06:28:00;14.63;;;6.57;;
67546;SDS011;54381;53.516;49.424;2022-08-21T06:30:28;18.73;;;7.20;;
67546;SDS011;54381;53.516;49.424;2022-08-21T06:32:54;30.23;;;7.97;;
67546;SDS011;54381;53.516;49.424;2022-08-21T06:35:20;18.15;;;7.25;;
67546;SDS011;54381;53.516;49.424;2022-08-21T06:37:47;23.67;;;7.22;;
67546;SDS011;54381;53.516;49.424;2022-08-21T06:40:13;29.80;;;7.65;;
67546;SDS011;54381;53.516;49.424;2022-08-21T06:42:39;18.35;;;7.57;;
67546;SDS011;54381;53.516;49.424;2022-08-21T06:45:05;16.70;;;7.72;;
67546;SDS011;54381;53.516;49.424;2022-08-21T06:47:32;10.32;;;6.55;;
67546;SDS011;54381;53.516;49.424;2022-08-21T06:49:58;23.15;;;6.10;;
67546;SDS011;54381;53.516;49.424;2022-08-21T06:52:24;16.67;;;4.75;;
67546;SDS011;54381;53.516;49.424;2022-08-21T06:54:50;14.50;;;5.40;;
67546;SDS011;54381;53.516;49.424;2022-08-21T06:57:16;8.93;;;4.90;;
67546;SDS011;54381;53.516;49.424;2022-08-21T06:59:42;9.13;;;4.40;;
67546;SDS011;54381;53.516;49.424;2022-08-21T07:02:08;6.13;;;4.72;;
67546;SDS011;54381;53.516;49.424;2022-08-21T07:04:35;7.47;;;3.33;;
67546;SDS011;54381;53.516;49.424;2022-08-21T07:07:01;4.18;;;3.00;;
67546;SDS011;54381;53.516;49.424;2022-08-21T07:09:27;6.50;;;3.20;;
67546;SDS011;54381;53.516;49.424;2022-08-21T07:11:54;10.93;;;3.17;;
67546;SDS011;54381;53.516;49.424;2022-08-21T07:14:22;11.65;;;3.30;;
67546;SDS011;54381;53.516;49.424;2022-08-21T07:16:48;9.90;;;2.80;;
67546;SDS011;54381;53.516;49.424;2022-08-21T07:19:16;7.72;;;3.47;;
67546;SDS011;54381;53.516;49.424;2022-08-21T07:21:42;6.75;;;3.03;;
67546;SDS011;54381;53.516;49.424;2022-08-21T07:24:08;9.07;;;3.42;;
67546;SDS011;54381;53.516;49.424;2022-08-21T07:26:35;8.57;;;3.08;;
67546;SDS011;54381;53.516;49.424;2022-08-21T07:29:02;12.50;;;3.60;;
67546;SDS011;54381;53.516;49.424;2022-08-21T07:31:28;27.77;;;3.90;;
67546;SDS011;54381;53.516;49.424;2022-08-21T07:33:55;7.97;;;3.38;;
67546;SDS011;54381;53.516;49.424;2022-08-21T07:36:21;4.63;;;3.60;;
67546;SDS011;54381;53.516;49.424;2022-08-21T07:38:47;17.58;;;3.40;;
67546;SDS011;54381;53.516;49.424;2022-08-21T07:41:15;6.13;;;3.60;;
67546;SDS011;54381;53.516;49.424;2022-08-21T07:43:43;10.32;;;3.83;;
67546;SDS011;54381;53.516;49.424;2022-08-21T07:46:10;7.63;;;3.20;;
67546;SDS011;54381;53.516;49.424;2022-08-21T07:48:36;4.97;;;2.90;;
67546;SDS011;54381;53.516;49.424;2022-08-21T07:51:06;7.35;;;3.45;;
67546;SDS011;54381;53.516;49.424;2022-08-21T07:53:34;7.85;;;3.75;;
67546;SDS011;54381;53.516;49.424;2022-08-21T07:56:02;10.88;;;3.38;;
67546;SDS011;54381;53.516;49.424;2022-08-21T07:58:30;9.45;;;3.45;;
67546;SDS011;54381;53.516;49.424;2022-08-21T08:00:57;11.75;;;3.38;;
67546;SDS011;54381;53.516;49.424;2022-08-21T08:03:23;9.90;;;3.70;;
67546;SDS011;54381;53.516;49.424;2022-08-21T08:05:50;9.32;;;3.70;;
67546;SDS011;54381;53.516;49.424;2022-08-21T08:08:16;10.50;;;3.78;;
67546;SDS011;54381;53.516;49.424;2022-08-21T08:10:43;8.38;;;3.53;;
67546;SDS011;54381;53.516;49.424;2022-08-21T08:13:10;4.75;;;3.20;;
67546;SDS011;54381;53.516;49.424;2022-08-21T08:15:36;5.72;;;2.60;;
67546;SDS011;54381;53.516;49.424;2022-08-21T08:18:03;6.28;;;3.00;;
67546;SDS011;54381;53.516;49.424;2022-08-21T08:20:30;12.48;;;4.03;;
67546;SDS011;54381;53.516;49.424;2022-08-21T08:22:56;11.75;;;3.53;;
67546;SDS011;54381;53.516;49.424;2022-08-21T08:25:23;8.65;;;3.55;;
67546;SDS011;54381;53.516;49.424;2022-08-21T08:27:51;13.52;;;3.58;;
67546;SDS011;54381;53.516;49.424;2022-08-21T08:30:18;6.78;;;3.40;;
67546;SDS011;54381;53.516;49.424;2022-08-21T08:32:47;10.45;;;3.70;;
67546;SDS011;54381;53.516;49.424;2022-08-21T08:35:15;9.45;;;3.58;;
67546;SDS011;54381;53.516;49.424;2022-08-21T08:37:41;7.93;;;3.53;;
67546;SDS011;54381;53.516;49.424;2022-08-21T08:40:11;12.10;;;4.22;;
67546;SDS011;54381;53.516;49.424;2022-08-21T08:42:46;15.70;;;4.22;;
67546;SDS011;54381;53.516;49.424;2022-08-21T08:45:15;10.85;;;3.20;;
67546;SDS011;54381;53.516;49.424;2022-08-21T08:47:49;9.68;;;3.58;;
67546;SDS011;54381;53.516;49.424;2022-08-21T08:53:27;7.57;;;3.85;;
67546;SDS011;54381;53.516;49.424;2022-08-21T08:55:57;16.55;;;3.80;;
67546;SDS011;54381;53.516;49.424;2022-08-21T08:58:30;9.00;;;3.65;;
67546;SDS011;54381;53.516;49.424;2022-08-21T09:00:58;7.50;;;4.03;;
67546;SDS011;54381;53.516;49.424;2022-08-21T09:03:25;7.88;;;3.20;;
67546;SDS011;54381;53.516;49.424;2022-08-21T09:09:11;11.13;;;3.75;;
67546;SDS011;54381;53.516;49.424;2022-08-21T09:12:19;6.15;;;4.18;;
67546;SDS011;54381;53.516;49.424;2022-08-21T09:20:36;15.60;;;3.80;;
67546;SDS011;54381;53.516;49.424;2022-08-21T09:28:35;11.57;;;4.07;;
67546;SDS011;54381;53.516;49.424;2022-08-21T09:31:04;15.30;;;3.90;;
67546;SDS011;54381;53.516;49.424;2022-08-21T09:33:33;10.25;;;4.00;;
67546;SDS011;54381;53.516;49.424;2022-08-21T09:36:00;16.02;;;4.03;;
67546;SDS011;54381;53.516;49.424;2022-08-21T09:38:31;6.40;;;3.97;;
67546;SDS011;54381;53.516;49.424;2022-08-21T09:41:04;7.83;;;3.70;;
67546;SDS011;54381;53.516;49.424;2022-08-21T09:43:34;6.60;;;3.80;;
67546;SDS011;54381;53.516;49.424;2022-08-21T09:46:06;10.15;;;3.55;;
67546;SDS011;54381;53.516;49.424;2022-08-21T09:48:47;7.85;;;3.53;;
67546;SDS011;54381;53.516;49.424;2022-08-21T09:53:55;7.95;;;3.30;;
67546;SDS011;54381;53.516;49.424;2022-08-21T09:56:52;10.13;;;3.72;;
67546;SDS011;54381;53.516;49.424;2022-08-21T09:59:37;5.30;;;3.60;;
67546;SDS011;54381;53.516;49.424;2022-08-21T10:04:56;7.53;;;3.58;;
67546;SDS011;54381;53.516;49.424;2022-08-21T10:07:24;12.52;;;4.18;;
67546;SDS011;54381;53.516;49.424;2022-08-21T10:10:04;14.18;;;3.90;;
67546;SDS011;54381;53.516;49.424;2022-08-21T10:20:44;9.38;;;3.90;;
67546;SDS011;54381;53.516;49.424;2022-08-21T10:29:11;9.80;;;3.65;;
67546;SDS011;54381;53.516;49.424;2022-08-21T10:34:48;6.53;;;3.35;;
67546;SDS011;54381;53.516;49.424;2022-08-21T10:37:26;6.15;;;3.58;;
67546;SDS011;54381;53.516;49.424;2022-08-21T10:49:07;8.55;;;3.33;;
67546;SDS011;54381;53.516;49.424;2022-08-21T10:56:44;7.55;;;3.88;;
67546;SDS011;54381;53.516;49.424;2022-08-21T10:59:25;9.23;;;4.00;;
67546;SDS011;54381;53.516;49.424;2022-08-21T11:02:35;5.65;;;3.53;;
67546;SDS011;54381;53.516;49.424;2022-08-21T11:05:25;18.50;;;3.50;;
67546;SDS011;54381;53.516;49.424;2022-08-21T11:10:50;8.73;;;3.70;;
67546;SDS011;54381;53.516;49.424;2022-08-21T11:13:32;11.07;;;3.90;;
67546;SDS011;54381;53.516;49.424;2022-08-21T11:16:36;4.70;;;3.58;;
67546;SDS011;54381;53.516;49.424;2022-08-21T11:27:27;6.78;;;3.53;;
67546;SDS011;54381;53.516;49.424;2022-08-21T11:30:00;10.43;;;4.15;;
67546;SDS011;54381;53.516;49.424;2022-08-21T11:38:01;7.10;;;4.00;;
67546;SDS011;54381;53.516;49.424;2022-08-21T11:45:55;6.90;;;4.30;;
67546;SDS011;54381;53.516;49.424;2022-08-21T11:48:34;10.68;;;3.75;;
67546;SDS011;54381;53.516;49.424;2022-08-21T11:51:55;5.45;;;3.75;;
67546;SDS011;54381;53.516;49.424;2022-08-21T11:54:23;6.55;;;4.00;;
67546;SDS011;54381;53.516;49.424;2022-08-21T11:57:21;17.10;;;3.92;;
67546;SDS011;54381;53.516;49.424;2022-08-21T11:59:57;8.75;;;3.92;;
67546;SDS011;54381;53.516;49.424;2022-08-21T12:02:30;6.90;;;3.80;;
67546;SDS011;54381;53.516;49.424;2022-08-21T12:05:02;8.77;;;3.70;;
67546;SDS011;54381;53.516;49.424;2022-08-21T12:07:35;5.50;;;3.55;;
67546;SDS011;54381;53.516;49.424;2022-08-21T12:10:11;6.80;;;4.20;;
67546;SDS011;54381;53.516;49.424;2022-08-21T12:12:41;6.90;;;3.92;;
67546;SDS011;54381;53.516;49.424;2022-08-21T12:20:42;5.82;;;3.97;;
67546;SDS011;54381;53.516;49.424;2022-08-21T12:25:37;4.88;;;3.80;;
67546;SDS011;54381;53.516;49.424;2022-08-21T12:28:14;8.70;;;4.00;;
67546;SDS011;54381;53.516;49.424;2022-08-21T12:35:46;9.40;;;3.95;;
67546;SDS011;54381;53.516;49.424;2022-08-21T12:38:17;13.18;;;4.03;;
67546;SDS011;54381;53.516;49.424;2022-08-21T12:40:57;13.80;;;4.63;;
67546;SDS011;54381;53.516;49.424;2022-08-21T12:43:33;9.73;;;4.80;;
67546;SDS011;54381;53.516;49.424;2022-08-21T12:46:04;11.63;;;4.70;;
67546;SDS011;54381;53.516;49.424;2022-08-21T12:51:29;13.13;;;7.00;;
67546;SDS011;54381;53.516;49.424;2022-08-21T12:54:03;14.88;;;6.88;;
67546;SDS011;54381;53.516;49.424;2022-08-21T12:56:30;14.88;;;8.05;;
67546;SDS011;54381;53.516;49.424;2022-08-21T12:59:02;9.07;;;6.03;;
67546;SDS011;54381;53.516;49.424;2022-08-21T13:01:32;9.00;;;5.80;;
67546;SDS011;54381;53.516;49.424;2022-08-21T13:04:03;9.90;;;5.70;;
67546;SDS011;54381;53.516;49.424;2022-08-21T13:06:38;10.30;;;5.88;;
67546;SDS011;54381;53.516;49.424;2022-08-21T13:09:10;6.93;;;5.30;;
67546;SDS011;54381;53.516;49.424;2022-08-21T13:11:40;8.20;;;5.40;;
67546;SDS011;54381;53.516;49.424;2022-08-21T13:14:17;13.48;;;6.07;;
67546;SDS011;54381;53.516;49.424;2022-08-21T13:16:53;7.20;;;5.18;;
67546;SDS011;54381;53.516;49.424;2022-08-21T13:19:21;7.90;;;5.40;;
67546;SDS011;54381;53.516;49.424;2022-08-21T13:21:48;7.82;;;5.50;;
67546;SDS011;54381;53.516;49.424;2022-08-21T13:24:17;14.50;;;5.72;;
67546;SDS011;54381;53.516;49.424;2022-08-21T13:26:49;9.98;;;5.70;;
67546;SDS011;54381;53.516;49.424;2022-08-21T13:29:17;7.47;;;4.50;;
67546;SDS011;54381;53.516;49.424;2022-08-21T13:32:05;8.13;;;4.97;;
67546;SDS011;54381;53.516;49.424;2022-08-21T13:34:35;11.18;;;4.78;;
67546;SDS011;54381;53.516;49.424;2022-08-21T13:37:04;15.73;;;5.25;;
67546;SDS011;54381;53.516;49.424;2022-08-21T13:39:33;9.88;;;4.82;;
67546;SDS011;54381;53.516;49.424;2022-08-21T13:42:00;7.68;;;4.18;;
67546;SDS011;54381;53.516;49.424;2022-08-21T13:46:57;6.93;;;4.43;;
67546;SDS011;54381;53.516;49.424;2022-08-21T13:49:26;11.13;;;4.68;;
67546;SDS011;54381;53.516;49.424;2022-08-21T13:51:59;8.02;;;4.35;;
67546;SDS011;54381;53.516;49.424;2022-08-21T13:54:28;9.98;;;4.80;;
67546;SDS011;54381;53.516;49.424;2022-08-21T13:57:00;12.15;;;5.05;;
67546;SDS011;54381;53.516;49.424;2022-08-21T13:59:31;6.45;;;4.90;;
67546;SDS011;54381;53.516;49.424;2022-08-21T14:04:57;7.38;;;4.53;;
67546;SDS011;54381;53.516;49.424;2022-08-21T14:07:29;8.50;;;4.90;;
67546;SDS011;54381;53.516;49.424;2022-08-21T14:10:02;13.75;;;5.00;;
67546;SDS011;54381;53.516;49.424;2022-08-21T14:12:50;11.07;;;4.38;;
67546;SDS011;54381;53.516;49.424;2022-08-21T14:15:25;6.35;;;4.28;;
67546;SDS011;54381;53.516;49.424;2022-08-21T14:18:16;11.15;;;4.57;;
67546;SDS011;54381;53.516;49.424;2022-08-21T14:20:45;14.23;;;5.50;;
67546;SDS011;54381;53.516;49.424;2022-08-21T14:23:12;14.52;;;5.30;;
67546;SDS011;54381;53.516;49.424;2022-08-21T14:25:50;8.25;;;5.13;;
67546;SDS011;54381;53.516;49.424;2022-08-21T14:28:27;10.30;;;5.25;;
67546;SDS011;54381;53.516;49.424;2022-08-21T14:30:59;17.98;;;5.60;;
67546;SDS011;54381;53.516;49.424;2022-08-21T14:33:41;8.35;;;5.38;;
67546;SDS011;54381;53.516;49.424;2022-08-21T14:36:08;11.38;;;6.30;;
67546;SDS011;54381;53.516;49.424;2022-08-21T14:38:35;13.18;;;6.05;;
67546;SDS011;54381;53.516;49.424;2022-08-21T14:41:04;14.40;;;6.03;;
67546;SDS011;54381;53.516;49.424;2022-08-21T14:43:45;13.45;;;5.85;;
67546;SDS011;54381;53.516;49.424;2022-08-21T14:46:12;12.85;;;5.72;;
67546;SDS011;54381;53.516;49.424;2022-08-21T14:48:46;12.48;;;5.82;;
67546;SDS011;54381;53.516;49.424;2022-08-21T14:51:12;9.80;;;5.95;;
67546;SDS011;54381;53.516;49.424;2022-08-21T14:53:39;14.07;;;6.72;;
67546;SDS011;54381;53.516;49.424;2022-08-21T14:56:05;8.23;;;5.95;;
67546;SDS011;54381;53.516;49.424;2022-08-21T14:58:33;9.27;;;6.28;;
67546;SDS011;54381;53.516;49.424;2022-08-21T15:01:03;16.13;;;6.15;;
67546;SDS011;54381;53.516;49.424;2022-08-21T15:03:31;20.85;;;6.78;;
67546;SDS011;54381;53.516;49.424;2022-08-21T15:05:58;12.10;;;6.15;;
67546;SDS011;54381;53.516;49.424;2022-08-21T15:08:25;19.60;;;6.68;;
67546;SDS011;54381;53.516;49.424;2022-08-21T15:10:51;17.38;;;6.57;;
67546;SDS011;54381;53.516;49.424;2022-08-21T15:13:19;10.32;;;6.40;;
67546;SDS011;54381;53.516;49.424;2022-08-21T15:15:47;18.10;;;7.88;;
67546;SDS011;54381;53.516;49.424;2022-08-21T15:18:15;15.45;;;7.20;;
67546;SDS011;54381;53.516;49.424;2022-08-21T15:20:41;12.20;;;7.45;;
67546;SDS011;54381;53.516;49.424;2022-08-21T15:23:08;15.73;;;7.65;;
67546;SDS011;54381;53.516;49.424;2022-08-21T15:25:35;15.73;;;7.45;;
67546;SDS011;54381;53.516;49.424;2022-08-21T15:28:02;15.90;;;8.05;;
67546;SDS011;54381;53.516;49.424;2022-08-21T15:30:29;17.08;;;8.07;;
67546;SDS011;54381;53.516;49.424;2022-08-21T15:32:56;16.13;;;8.20;;
67546;SDS011;54381;53.516;49.424;2022-08-21T15:35:23;16.90;;;8.27;;
67546;SDS011;54381;53.516;49.424;2022-08-21T15:37:49;16.83;;;8.27;;
67546;SDS011;54381;53.516;49.424;2022-08-21T15:40:15;12.45;;;8.40;;
67546;SDS011;54381;53.516;49.424;2022-08-21T15:42:41;21.60;;;8.82;;
67546;SDS011;54381;53.516;49.424;2022-08-21T15:45:09;16.73;;;8.00;;
67546;SDS011;54381;53.516;49.424;2022-08-21T15:47:38;21.42;;;8.50;;
67546;SDS011;54381;53.516;49.424;2022-08-21T15:50:08;13.65;;;8.07;;
67546;SDS011;54381;53.516;49.424;2022-08-21T15:52:35;15.10;;;9.05;;
67546;SDS011;54381;53.516;49.424;2022-08-21T15:55:01;17.48;;;9.02;;
67546;SDS011;54381;53.516;49.424;2022-08-21T15:57:27;20.67;;;8.70;;
67546;SDS011;54381;53.516;49.424;2022-08-21T15:59:55;16.15;;;8.93;;
67546;SDS011;54381;53.516;49.424;2022-08-21T16:02:26;21.58;;;9.70;;
67546;SDS011;54381;53.516;49.424;2022-08-21T16:04:55;18.92;;;9.63;;
67546;SDS011;54381;53.516;49.424;2022-08-21T16:07:23;19.98;;;9.90;;
67546;SDS011;54381;53.516;49.424;2022-08-21T16:09:49;23.08;;;10.23;;
67546;SDS011;54381;53.516;49.424;2022-08-21T16:12:20;22.73;;;11.07;;
67546;SDS011;54381;53.516;49.424;2022-08-21T16:14:52;21.48;;;10.60;;
67546;SDS011;54381;53.516;49.424;2022-08-21T16:17:20;24.60;;;9.90;;